MST,Max TemperatureF,Mean TemperatureF,Min TemperatureF,Max Dew PointF,MeanDew PointF,Min DewpointF,Max Humidity, Mean Humidity, Min Humidity, Max Sea Level PressureIn, Mean Sea Level PressureIn, Min Sea Level PressureIn, Max VisibilityMiles, Mean VisibilityMiles, Min VisibilityMiles, Max Wind SpeedMPH, Mean Wind SpeedMPH, Max Gust SpeedMPH,PrecipitationIn, CloudCover, Events, WindDirDegrees
2014-2-1,37,27,17,26,19,11,100,68,35,30.14,29.93,29.79,10,6,0,12,4,13,0.00,3,Fog,323
2014-2-2,34,24,13,21,16,10,88,71,53,30.24,30.12,30.01,10,10,10,10,3,13,0.00,1,,162
2014-2-3,34,30,25,27,24,19,92,81,69,29.99,29.91,29.85,10,7,1,10,2,12,0.01,7,Snow,145
2014-2-4,36,29,22,27,23,13,100,74,47,30.15,29.90,29.78,10,9,2,17,7,21,T,5,Snow,291
2014-2-5,34,27,19,19,15,12,84,63,41,30.24,30.15,30.07,10,10,10,10,3,12,0.00,3,,62
2014-2-6,36,27,17,27,20,13,84,70,56,30.10,30.01,29.90,10,10,10,10,4,11,0.00,4,,338
2014-2-7,47,37,27,32,27,24,85,65,45,29.97,29.92,29.88,10,10,10,15,6,19,0.00,2,,292
2014-2-8,51,42,32,36,31,27,82,68,53,30.06,30.00,29.94,10,10,10,13,4,15,T,3,Rain,349
2014-2-9,51,41,31,42,35,30,100,78,56,30.04,29.99,29.92,10,10,4,18,4,22,T,3,Rain,209
2014-2-10,49,41,32,41,36,31,100,85,70,30.14,30.00,29.91,10,7,0,10,4,12,0.01,6,Fog-Rain,323
2014-2-11,48,39,30,33,29,26,96,71,45,30.24,30.15,30.07,10,10,10,10,2,12,0.00,0,,252
2014-2-12,51,41,30,35,30,27,92,71,50,30.25,30.15,30.04,10,10,10,8,2,11,0.00,2,,316
2014-2-13,56,43,29,39,33,28,92,69,46,30.14,30.05,29.97,10,10,10,14,3,15,0.00,0,,273
2014-2-14,57,44,31,38,35,31,100,72,43,30.12,30.05,30.00,10,10,10,8,3,10,0.00,3,,178
2014-2-15,55,45,35,39,36,32,89,68,47,30.06,30.00,29.93,10,10,10,8,4,9,0.00,0,,152
2014-2-16,68,53,37,37,30,21,85,51,17,30.14,29.90,29.72,10,10,10,38,8,46,0.00,1,,290
2014-2-17,56,41,26,29,22,16,78,50,22,30.23,30.10,29.97,10,10,10,10,3,12,0.00,0,,193
2014-2-18,61,44,27,33,26,20,85,54,23,30.09,29.99,29.89,10,10,10,15,3,18,0.00,0,,295
2014-2-19,62,48,33,36,25,7,75,49,23,29.98,29.77,29.59,10,10,10,44,10,55,0.02,3,Rain,286
2014-2-20,45,36,27,13,7,2,50,33,16,30.27,30.17,30.02,10,10,10,23,10,27,0.00,0,,296
2014-2-21,55,39,23,20,14,11,58,38,18,30.14,30.04,29.94,10,10,10,13,3,17,0.00,0,,300
2014-2-22,59,42,24,20,16,10,63,39,15,29.96,29.91,29.84,10,10,10,21,6,26,0.00,0,,274
2014-2-23,62,44,25,20,14,9,63,38,12,30.10,30.01,29.94,10,10,10,14,3,19,0.00,0,,243
2014-2-24,65,45,24,20,16,12,63,38,13,30.09,30.01,29.95,10,10,10,8,2,11,0.00,0,,259
2014-2-25,66,46,26,20,17,14,63,38,13,30.05,29.95,29.87,10,10,10,13,4,15,0.00,0,,313
2014-2-26,65,50,34,26,23,19,59,39,19,30.01,29.90,29.80,10,10,10,12,3,14,0.00,0,,164
2014-2-27,57,48,39,40,33,25,89,63,36,29.79,29.69,29.60,10,9,2,45,8,55,0.02,5,Rain,232
2014-2-28,54,42,30,35,30,25,89,62,35,29.87,29.77,29.60,10,10,10,22,7,27,T,3,,152